Site contains unofficial IBTrACS data. Visit the IBTrACS Website to access archived data.

1873 Hurricane NOT_NAMED (1873256N13296)


IBTrACS version v04r00. Visit IBTrACS website for data access.
Please direct all questions to the IBTrACS Q and A forum

Storm track - Intensity - Wind Radii - Intensity Data - Source Data - All data

Summary Information

Storm ID 1873256N13296
Start Sep 12 12Z
Landfall Sep 19 15Z
Max Intensity 70 kt (Sep 18 00Z), 992 mb (Sep 20 06Z)
End Sep 21 18Z
ATCF IDs ,AL031873
Track status Best track data.

Storm track plot

Map of storm track

Intensity plots

Map of storm track

Radial wind information

No radial wind information for this storm


Position and Intensity Table

BASIN ISO_TIME_________ NATURE LAT LON WMO WIND USA WIND MLC WIND MLC PRES
degrees north degrees east kts kts kts mb
NA 1873-09-12 12:00:00 TS 13.00 -64.00 35
NA 15:00:00 TS 13.21 -64.61 35
NA 18:00:00 TS 13.40 -65.20 35
NA 21:00:00 TS 13.56 -65.76 35
NA 1873-09-13 00:00:00 TS 13.70 -66.30 35
NA 03:00:00 TS 13.85 -66.85 35
NA 06:00:00 TS 14.00 -67.40 35
NA 09:00:00 TS 14.14 -67.94 35
NA 12:00:00 TS 14.30 -68.50 35
NA 15:00:00 TS 14.50 -69.09 35
NA 18:00:00 TS 14.70 -69.70 35
NA 21:00:00 TS 14.86 -70.30 35
NA 1873-09-14 00:00:00 TS 15.00 -70.90 35
NA 03:00:00 TS 15.15 -71.51 35
NA 06:00:00 TS 15.30 -72.10 35
NA 09:00:00 TS 15.45 -72.65 35
NA 12:00:00 TS 15.60 -73.20 35
NA 15:00:00 TS 15.76 -73.80 35
NA 18:00:00 TS 15.90 -74.40 35
NA 21:00:00 TS 16.01 -74.96 35
NA 1873-09-15 00:00:00 TS 16.10 -75.50 35
NA 03:00:00 TS 16.20 -76.05 35
NA 06:00:00 TS 16.30 -76.60 35
NA 09:00:00 TS 16.38 -77.13 37
NA 12:00:00 TS 16.50 -77.70 40
NA 15:00:00 TS 16.73 -78.38 40
NA 18:00:00 TS 17.00 -79.10 40
NA 21:00:00 TS 17.25 -79.80 40
NA 1873-09-16 00:00:00 TS 17.50 -80.50 40
NA 03:00:00 TS 17.75 -81.21 40
NA 06:00:00 TS 18.00 -81.90 40
NA 09:00:00 TS 18.23 -82.60 42
NA 12:00:00 TS 18.50 -83.20 45
NA 15:00:00 TS 18.88 -83.65 45
NA 18:00:00 TS 19.30 -84.00 45
NA 21:00:00 TS 19.70 -84.36 47
NA 1873-09-17 00:00:00 TS 20.10 -84.70 50
NA 03:00:00 TS 20.50 -85.05 50
NA 06:00:00 TS 20.90 -85.40 50
NA 09:00:00 TS 21.29 -85.79 52
NA 12:00:00 TS 21.70 -86.10 55
NA 15:00:00 TS 22.14 -86.20 57
NA 18:00:00 TS 22.60 -86.20 60
NA 21:00:00 TS 23.05 -86.24 60
NA 1873-09-18 00:00:00 TS 23.23 -87.50 70 70 60
NA 03:00:00 TS 23.52 -88.18 70 62
NA 06:00:00 TS 23.86 -88.58 70 70 65
NA 09:00:00 TS 24.26 -88.78 70 65
NA 12:00:00 TS 24.77 -88.67 70 70 65
NA 15:00:00 TS 25.34 -88.44 70 65
NA 18:00:00 TS 25.93 -88.10 70 70 65
NA 21:00:00 TS 26.49 -87.71 70 65
NA 1873-09-19 00:00:00 TS 27.03 -87.27 70 70 65
NA 03:00:00 TS 27.56 -86.81 70 65
NA 06:00:00 TS 28.10 -86.30 70 70 65
NA 09:00:00 TS 28.63 -85.71 70 65
NA 12:00:00 TS 29.23 -85.07 70 70 65
NA 15:00:00 TS 29.94 -84.39 70 70 62
NA 18:00:00 TS 30.63 -83.47 60 60 60
NA 21:00:00 TS 31.39 -82.36 55 55
NA 1873-09-20 00:00:00 TS 32.13 -81.07 50 50 50
NA 03:00:00 TS 32.78 -79.67 55 57
NA 06:00:00 TS 33.33 -78.20 60 60 65 992
NA 09:00:00 TS 33.77 -76.84 65 67
NA 12:00:00 TS 34.20 -75.38 70 70 70
NA 15:00:00 TS 34.88 -73.41 70 70
NA 18:00:00 TS 35.97 -71.10 70 70 70
NA 21:00:00 TS 37.86 -68.86 65
NA 1873-09-21 00:00:00 TS 39.10 -66.10 60
NA 03:00:00 TS 40.52 -63.01 57
NA 06:00:00 TS 42.00 -59.90 55
NA 09:00:00 TS 43.38 -57.07 52
NA 12:00:00 TS 44.80 -54.40 50
NA 15:00:00 TS 46.29 -51.74 50
NA 18:00:00 ET 47.80 -49.00 50

Source Information

Agency Information
USA hurdat2-1851-2019-042820.txt:Line=2586:UNNAMED
TOKYO
CMA
HKO
NEWDELHI
REUNION
BOM
NADI
WELLINGTON
DS824
TD9636
TD9635
NEUMANN
MLC

All available IBTrACS Data

SEASON BASIN SUBBASIN ISO_TIME_________ NATURE LAT LON WMO WIND WMO AGENCY DIST2LAND LANDFALL IFLAG USA AGENCY USA ATCF_ID USA LAT USA LON USA RECORD USA STATUS USA WIND USA SSHS MLC LAT MLC LON MLC CLASS MLC WIND MLC PRES STORM SPEED STORM DIR
Year degrees north degrees east kts km km degrees north degrees east kts 1 degrees north degrees east kts mb kts degrees
1873 NA CS 1873-09-12 12:00:00 TS 13.00 -64.00 268 268 _____________O -1 13.00 -64.00 TS 35 13 290
1873 NA CS 15:00:00 TS 13.21 -64.61 294 294 _____________P -1 13.21 -64.61 TS 35 12 289
1873 NA CS 18:00:00 TS 13.40 -65.20 325 320 _____________O -1 13.40 -65.20 TS 35 12 287
1873 NA CS 21:00:00 TS 13.56 -65.76 336 335 _____________P -1 13.56 -65.76 TS 35 11 286
1873 NA CS 1873-09-13 00:00:00 TS 13.70 -66.30 347 339 _____________O -1 13.70 -66.30 TS 35 11 285
1873 NA CS 03:00:00 TS 13.85 -66.85 333 328 _____________P -1 13.85 -66.85 TS 35 11 286
1873 NA CS 06:00:00 TS 14.00 -67.40 328 311 _____________O -1 14.00 -67.40 TS 35 11 285
1873 NA CS 09:00:00 TS 14.14 -67.94 311 289 _____________P -1 14.14 -67.94 TS 35 11 286
1873 NA CS 12:00:00 TS 14.30 -68.50 289 279 _____________O -1 14.30 -68.50 TS 35 12 288
1873 NA CS 15:00:00 TS 14.50 -69.09 282 279 _____________P -1 14.50 -69.09 TS 35 12 289
1873 NA CS 18:00:00 TS 14.70 -69.70 291 291 _____________O -1 14.70 -69.70 TS 35 12 287
1873 NA CS 21:00:00 TS 14.86 -70.30 308 292 _____________P -1 14.86 -70.30 TS 35 12 285
1873 NA CS 1873-09-14 00:00:00 TS 15.00 -70.90 295 279 _____________O -1 15.00 -70.90 TS 35 12 284
1873 NA CS 03:00:00 TS 15.15 -71.51 280 262 _____________P -1 15.15 -71.51 TS 35 12 285
1873 NA CS 06:00:00 TS 15.30 -72.10 268 264 _____________O -1 15.30 -72.10 TS 35 11 285
1873 NA CS 09:00:00 TS 15.45 -72.65 282 272 _____________P -1 15.45 -72.65 TS 35 11 286
1873 NA CS 12:00:00 TS 15.60 -73.20 276 257 _____________O -1 15.60 -73.20 TS 35 12 286
1873 NA CS 15:00:00 TS 15.76 -73.80 246 237 _____________P -1 15.76 -73.80 TS 35 12 285
1873 NA CS 18:00:00 TS 15.90 -74.40 240 239 _____________O -1 15.90 -74.40 TS 35 11 283
1873 NA CS 21:00:00 TS 16.01 -74.96 248 214 _____________P -1 16.01 -74.96 TS 35 11 281
1873 NA CS 1873-09-15 00:00:00 TS 16.10 -75.50 214 191 _____________O -1 16.10 -75.50 TS 35 11 280
1873 NA CS 03:00:00 TS 16.20 -76.05 190 169 _____________P -1 16.20 -76.05 TS 35 11 281
1873 NA CS 06:00:00 TS 16.30 -76.60 169 145 _____________O -1 16.30 -76.60 TS 35 11 280
1873 NA CS 09:00:00 TS 16.38 -77.13 145 138 _____________P -1 16.38 -77.13 TS 37 11 281
1873 NA CS 12:00:00 TS 16.50 -77.70 144 143 _____________O -1 16.50 -77.70 TS 40 12 286
1873 NA CS 15:00:00 TS 16.73 -78.38 153 148 _____________P -1 16.73 -78.38 TS 40 14 290
1873 NA CS 18:00:00 TS 17.00 -79.10 153 153 _____________O -1 17.00 -79.10 TS 40 15 291
1873 NA CS 21:00:00 TS 17.25 -79.80 185 179 _____________P -1 17.25 -79.80 TS 40 14 291
1873 NA CS 1873-09-16 00:00:00 TS 17.50 -80.50 235 235 _____________O -1 17.50 -80.50 TS 40 14 290
1873 NA CS 03:00:00 TS 17.75 -81.21 301 299 _____________P -1 17.75 -81.21 TS 40 14 291
1873 NA CS 06:00:00 TS 18.00 -81.90 341 323 _____________O -1 18.00 -81.90 TS 40 14 290
1873 NA CS 09:00:00 TS 18.23 -82.60 323 316 _____________P -1 18.23 -82.60 TS 42 13 292
1873 NA CS 12:00:00 TS 18.50 -83.20 323 291 _____________O -1 18.50 -83.20 TS 45 12 303
1873 NA CS 15:00:00 TS 18.88 -83.65 291 266 _____________P -1 18.88 -83.65 TS 45 11 317
1873 NA CS 18:00:00 TS 19.30 -84.00 266 235 _____________O -1 19.30 -84.00 TS 45 11 321
1873 NA CS 21:00:00 TS 19.70 -84.36 235 190 _____________P -1 19.70 -84.36 TS 47 10 321
1873 NA CS 1873-09-17 00:00:00 TS 20.10 -84.70 190 146 _____________O -1 20.10 -84.70 TS 50 10 321
1873 NA CS 03:00:00 TS 20.50 -85.05 148 118 _____________P -1 20.50 -85.05 TS 50 10 321
1873 NA CS 06:00:00 TS 20.90 -85.40 118 93 _____________O -1 20.90 -85.40 TS 50 11 319
1873 NA CS 09:00:00 TS 21.29 -85.79 95 79 _____________P -1 21.29 -85.79 TS 52 10 321
1873 NA CS 12:00:00 TS 21.70 -86.10 85 83 _____________O -1 21.70 -86.10 TS 55 9 336
1873 NA GM 15:00:00 TS 22.14 -86.20 106 106 _____________P -1 22.14 -86.20 TS 57 9 355
1873 NA GM 18:00:00 TS 22.60 -86.20 146 146 _____________O -1 22.60 -86.20 TS 60 9 358
1873 NA GM 21:00:00 TS 23.05 -86.24 174 174 _____________P -1 23.05 -86.24 TS 60 14 298
1873 NA GM 1873-09-18 00:00:00 TS 23.23 -87.50 70 hurdat_atl 191 190 O____________O hurdat_atl AL031873 22.70 -89.90 HU 70 1 23.50 -86.30 TS 60 18 285
1873 NA GM 03:00:00 TS 23.52 -88.18 223 223 P____________P AL031873 23.09 -89.92 HU 70 1 23.95 -86.44 TS 62 12 302
1873 NA GM 06:00:00 TS 23.86 -88.58 70 hurdat_atl 268 268 O____________O hurdat_atl AL031873 23.50 -89.90 HU 70 1 24.40 -86.60 HU 65 9 323
1873 NA GM 09:00:00 TS 24.26 -88.78 313 313 P____________P AL031873 23.97 -89.80 HU 70 1 24.83 -86.74 HU 65 9 355
1873 NA GM 12:00:00 TS 24.77 -88.67 70 hurdat_atl 369 368 O____________O hurdat_atl AL031873 24.50 -89.60 HU 70 1 25.30 -86.80 HU 65 11 16
1873 NA GM 15:00:00 TS 25.34 -88.44 418 359 P____________P AL031873 25.09 -89.31 HU 70 1 25.84 -86.69 HU 65 13 24
1873 NA GM 18:00:00 TS 25.93 -88.10 70 hurdat_atl 359 311 O____________O hurdat_atl AL031873 25.70 -88.90 HU 70 1 26.40 -86.50 HU 65 13 29
1873 NA GM 21:00:00 TS 26.49 -87.71 311 284 P____________P AL031873 26.26 -88.39 HU 70 1 26.96 -86.36 HU 65 13 34
1873 NA GM 1873-09-19 00:00:00 TS 27.03 -87.27 70 hurdat_atl 284 272 O____________O hurdat_atl AL031873 26.80 -87.80 HU 70 1 27.50 -86.20 HU 65 13 37
1873 NA GM 03:00:00 TS 27.56 -86.81 271 198 P____________P AL031873 27.34 -87.23 HU 70 1 28.01 -85.98 HU 65 14 39
1873 NA GM 06:00:00 TS 28.10 -86.30 70 hurdat_atl 198 126 O____________O hurdat_atl AL031873 27.90 -86.60 HU 70 1 28.50 -85.70 HU 65 14 42
1873 NA GM 09:00:00 TS 28.63 -85.71 126 55 P____________P AL031873 28.45 -85.86 HU 70 1 29.00 -85.42 HU 65 16 44
1873 NA GM 12:00:00 TS 29.23 -85.07 70 hurdat_atl 55 0 O____________O hurdat_atl AL031873 29.10 -85.10 HU 70 1 29.50 -85.00 HU 65 17 42
1873 NA GM 15:00:00 TS 29.94 -84.39 70 hurdat_atl 0 0 O____________P hurdat_atl AL031873 29.90 -84.40 L HU 70 1 30.01 -84.37 HU 62 20 45
1873 NA NA 18:00:00 TS 30.63 -83.47 60 hurdat_atl 0 0 O____________O hurdat_atl AL031873 30.70 -83.40 TS 60 0 30.50 -83.60 TS 60 23 50
1873 NA NA 21:00:00 TS 31.39 -82.36 0 0 P____________P AL031873 31.63 -82.08 TS 55 0 30.90 -82.92 TS 55 25 54
1873 NA NA 1873-09-20 00:00:00 TS 32.13 -81.07 50 hurdat_atl 0 0 O____________O hurdat_atl AL031873 32.50 -80.60 TS 50 0 31.40 -82.00 TS 50 27 59
1873 NA NA 03:00:00 TS 32.78 -79.67 9 9 P____________P AL031873 33.08 -79.23 TS 55 0 32.18 -80.56 TS 57 27 64
1873 NA NA 06:00:00 TS 33.33 -78.20 60 hurdat_atl 66 48 O____________O hurdat_atl AL031873 33.50 -77.80 TS 60 0 33.00 -79.00 HU 65 992 26 67
1873 NA NA 09:00:00 TS 33.77 -76.84 95 82 P____________P AL031873 33.90 -76.25 TS 65 1 33.52 -78.00 HU 67 25 70
1873 NA NA 12:00:00 TS 34.20 -75.38 70 hurdat_atl 113 113 O____________O hurdat_atl AL031873 34.20 -74.50 HU 70 1 34.20 -76.70 HU 70 30 69
1873 NA NA 15:00:00 TS 34.88 -73.41 214 214 P____________P AL031873 34.39 -72.48 HU 70 1 35.37 -74.34 HU 70 39 63
1873 NA NA 18:00:00 TS 35.97 -71.10 70 hurdat_atl 395 395 O____________O hurdat_atl AL031873 34.50 -70.30 HU 70 1 36.70 -71.50 HU 70 47 51
1873 NA NA 21:00:00 TS 37.86 -68.86 429 409 _____________P AL031873 HU -1 37.86 -68.86 HU 65 50 52
1873 NA NA 1873-09-21 00:00:00 TS 39.10 -66.10 438 378 _____________O -1 39.10 -66.10 TS 60 53 60
1873 NA NA 03:00:00 TS 40.52 -63.01 383 373 _____________P -1 40.52 -63.01 TS 57 55 58
1873 NA NA 06:00:00 TS 42.00 -59.90 368 347 _____________O -1 42.00 -59.90 TS 55 52 57
1873 NA NA 09:00:00 TS 43.38 -57.07 356 222 _____________P -1 43.38 -57.07 TS 52 49 55
1873 NA NA 12:00:00 TS 44.80 -54.40 209 94 _____________O -1 44.80 -54.40 TS 50 48 52
1873 NA NA 15:00:00 TS 46.29 -51.74 113 113 _____________P -1 46.29 -51.74 TS 50 48 51
1873 NA NA 18:00:00 ET 47.80 -49.00 270 _____________O -1 47.80 -49.00 EX 50 48 51